Weather at Austinia Airport

Public forecast

Using degrees Fahrenheit for public forecast. Weather courtesy of forecast.io.

Closest aviation weather report (METAR) to Austinia Airport

Closest report is Scholes International At Galveston Airport, 11.6 nm (21.6 km) SE. Retrieved 2020/10/30 17:52 UTC (1 hour ago):

KGLS 301752Z 03006KT 10SM BKN024 17/09 A3028 RMK AO2 SLP253 T01670089 10172 20117 58003

Closest aviation forecast (TAF) to Austinia Airport

Closest forecast is Scholes International At Galveston Airport, 11.6 nm (21.6 km) SE. Retrieved 2020/10/30 18:30 UTC (29 minutes ago):

TAF KGLS 301728Z 3018/3118 02012KT P6SM OVC023 FM302100 02008KT P6SM SKC FM310600 05007KT P6SM SKC